sensor_id;sensor_type;location;lat;lon;timestamp;temperature;humidity
14946;DHT22;7567;50.916;6.900;2022-09-03T00:00:16;15.00;99.90
14946;DHT22;7567;50.916;6.900;2022-09-03T00:02:43;15.00;1.00
14946;DHT22;7567;50.916;6.900;2022-09-03T00:08:02;15.00;1.00
14946;DHT22;7567;50.916;6.900;2022-09-03T00:13:15;15.00;61.00
14946;DHT22;7567;50.916;6.900;2022-09-03T00:15:42;14.90;1.00
14946;DHT22;7567;50.916;6.900;2022-09-03T00:18:13;14.90;1.00
14946;DHT22;7567;50.916;6.900;2022-09-03T00:21:02;14.90;1.00
14946;DHT22;7567;50.916;6.900;2022-09-03T00:23:34;14.90;99.90
14946;DHT22;7567;50.916;6.900;2022-09-03T00:31:28;14.80;99.90
14946;DHT22;7567;50.916;6.900;2022-09-03T00:34:13;14.70;1.00
14946;DHT22;7567;50.916;6.900;2022-09-03T00:36:41;14.70;1.00
14946;DHT22;7567;50.916;6.900;2022-09-03T00:39:16;14.60;1.00
14946;DHT22;7567;50.916;6.900;2022-09-03T00:42:11;14.70;1.00
14946;DHT22;7567;50.916;6.900;2022-09-03T00:50:35;14.50;1.00
14946;DHT22;7567;50.916;6.900;2022-09-03T00:55:48;14.50;1.00
14946;DHT22;7567;50.916;6.900;2022-09-03T01:07:04;14.40;99.90
14946;DHT22;7567;50.916;6.900;2022-09-03T01:18:10;14.20;1.00
14946;DHT22;7567;50.916;6.900;2022-09-03T01:20:50;14.20;99.90
14946;DHT22;7567;50.916;6.900;2022-09-03T01:26:21;14.10;99.90
14946;DHT22;7567;50.916;6.900;2022-09-03T01:29:19;14.10;1.00
14946;DHT22;7567;50.916;6.900;2022-09-03T01:40:02;14.00;99.90
14946;DHT22;7567;50.916;6.900;2022-09-03T01:45:45;14.00;99.90
14946;DHT22;7567;50.916;6.900;2022-09-03T01:48:42;14.00;1.00
14946;DHT22;7567;50.916;6.900;2022-09-03T01:51:21;14.00;1.00
14946;DHT22;7567;50.916;6.900;2022-09-03T01:54:25;14.00;1.00
14946;DHT22;7567;50.916;6.900;2022-09-03T01:59:33;14.00;1.00
14946;DHT22;7567;50.916;6.900;2022-09-03T02:02:28;14.00;1.00
14946;DHT22;7567;50.916;6.900;2022-09-03T02:07:49;13.80;99.90
14946;DHT22;7567;50.916;6.900;2022-09-03T02:10:41;13.80;99.90
14946;DHT22;7567;50.916;6.900;2022-09-03T02:13:21;13.80;99.90
14946;DHT22;7567;50.916;6.900;2022-09-03T02:15:49;13.80;1.00
14946;DHT22;7567;50.916;6.900;2022-09-03T02:18:23;13.80;1.00
14946;DHT22;7567;50.916;6.900;2022-09-03T02:20:52;13.80;99.90
14946;DHT22;7567;50.916;6.900;2022-09-03T02:23:19;13.80;1.00
14946;DHT22;7567;50.916;6.900;2022-09-03T02:25:49;13.80;99.90
14946;DHT22;7567;50.916;6.900;2022-09-03T02:28:16;13.70;1.00
14946;DHT22;7567;50.916;6.900;2022-09-03T02:30:42;13.70;99.90
14946;DHT22;7567;50.916;6.900;2022-09-03T02:33:08;13.70;1.00
14946;DHT22;7567;50.916;6.900;2022-09-03T02:35:34;13.70;1.00
14946;DHT22;7567;50.916;6.900;2022-09-03T02:38:13;13.70;1.00
14946;DHT22;7567;50.916;6.900;2022-09-03T02:40:41;13.70;1.00
14946;DHT22;7567;50.916;6.900;2022-09-03T02:43:14;13.70;1.00
14946;DHT22;7567;50.916;6.900;2022-09-03T02:45:46;13.70;99.90
14946;DHT22;7567;50.916;6.900;2022-09-03T02:48:13;13.60;99.90
14946;DHT22;7567;50.916;6.900;2022-09-03T02:50:41;13.60;99.90
14946;DHT22;7567;50.916;6.900;2022-09-03T02:53:07;13.60;1.00
14946;DHT22;7567;50.916;6.900;2022-09-03T02:55:34;13.60;1.00
14946;DHT22;7567;50.916;6.900;2022-09-03T02:57:59;13.50;1.00
14946;DHT22;7567;50.916;6.900;2022-09-03T03:00:26;13.60;1.00
14946;DHT22;7567;50.916;6.900;2022-09-03T03:02:54;13.50;1.00
14946;DHT22;7567;50.916;6.900;2022-09-03T03:05:47;13.50;1.00
14946;DHT22;7567;50.916;6.900;2022-09-03T03:08:16;13.50;1.00
14946;DHT22;7567;50.916;6.900;2022-09-03T03:10:46;13.50;1.00
14946;DHT22;7567;50.916;6.900;2022-09-03T03:13:14;13.50;1.00
14946;DHT22;7567;50.916;6.900;2022-09-03T03:15:40;13.50;8.30
14946;DHT22;7567;50.916;6.900;2022-09-03T03:18:05;13.50;16.50
14946;DHT22;7567;50.916;6.900;2022-09-03T03:20:32;13.50;1.00
14946;DHT22;7567;50.916;6.900;2022-09-03T03:23:01;13.50;99.90
14946;DHT22;7567;50.916;6.900;2022-09-03T03:25:34;13.50;1.00
14946;DHT22;7567;50.916;6.900;2022-09-03T03:28:00;13.50;99.90
14946;DHT22;7567;50.916;6.900;2022-09-03T03:30:27;13.50;1.00
14946;DHT22;7567;50.916;6.900;2022-09-03T03:32:53;13.50;1.00
14946;DHT22;7567;50.916;6.900;2022-09-03T03:35:19;13.50;1.00
14946;DHT22;7567;50.916;6.900;2022-09-03T03:37:46;13.60;1.00
14946;DHT22;7567;50.916;6.900;2022-09-03T03:40:12;13.60;1.00
14946;DHT22;7567;50.916;6.900;2022-09-03T03:42:38;13.50;1.00
14946;DHT22;7567;50.916;6.900;2022-09-03T03:45:05;13.50;1.00
14946;DHT22;7567;50.916;6.900;2022-09-03T03:47:31;13.50;99.90
14946;DHT22;7567;50.916;6.900;2022-09-03T03:49:58;13.40;99.90
14946;DHT22;7567;50.916;6.900;2022-09-03T03:52:25;13.40;99.90
14946;DHT22;7567;50.916;6.900;2022-09-03T03:54:51;13.40;99.90
14946;DHT22;7567;50.916;6.900;2022-09-03T03:57:18;13.40;99.90
14946;DHT22;7567;50.916;6.900;2022-09-03T03:59:44;13.40;1.00
14946;DHT22;7567;50.916;6.900;2022-09-03T04:02:11;13.40;99.90
14946;DHT22;7567;50.916;6.900;2022-09-03T04:04:36;13.40;99.90
14946;DHT22;7567;50.916;6.900;2022-09-03T04:07:02;13.40;99.90
14946;DHT22;7567;50.916;6.900;2022-09-03T04:09:28;13.50;99.90
14946;DHT22;7567;50.916;6.900;2022-09-03T04:11:54;13.50;99.90
14946;DHT22;7567;50.916;6.900;2022-09-03T04:14:23;13.60;99.90
14946;DHT22;7567;50.916;6.900;2022-09-03T04:16:49;13.60;99.90
14946;DHT22;7567;50.916;6.900;2022-09-03T04:19:16;13.60;99.90
14946;DHT22;7567;50.916;6.900;2022-09-03T04:21:42;13.60;1.00
14946;DHT22;7567;50.916;6.900;2022-09-03T04:24:09;13.70;1.00
14946;DHT22;7567;50.916;6.900;2022-09-03T04:26:35;13.70;1.00
14946;DHT22;7567;50.916;6.900;2022-09-03T04:29:05;13.80;1.00
14946;DHT22;7567;50.916;6.900;2022-09-03T04:31:33;13.80;1.00
14946;DHT22;7567;50.916;6.900;2022-09-03T04:33:59;13.70;93.50
14946;DHT22;7567;50.916;6.900;2022-09-03T04:36:27;13.70;99.90
14946;DHT22;7567;50.916;6.900;2022-09-03T04:38:54;13.80;1.00
14946;DHT22;7567;50.916;6.900;2022-09-03T04:41:28;13.70;1.00
14946;DHT22;7567;50.916;6.900;2022-09-03T04:43:56;13.70;1.00
14946;DHT22;7567;50.916;6.900;2022-09-03T04:46:24;13.80;99.90
14946;DHT22;7567;50.916;6.900;2022-09-03T04:48:52;13.80;99.90
14946;DHT22;7567;50.916;6.900;2022-09-03T04:51:20;13.80;1.00
14946;DHT22;7567;50.916;6.900;2022-09-03T04:53:52;13.90;1.00
14946;DHT22;7567;50.916;6.900;2022-09-03T04:56:24;13.90;1.00
14946;DHT22;7567;50.916;6.900;2022-09-03T04:58:54;13.90;99.90
14946;DHT22;7567;50.916;6.900;2022-09-03T05:01:22;13.90;99.90
14946;DHT22;7567;50.916;6.900;2022-09-03T05:03:48;13.90;99.90
14946;DHT22;7567;50.916;6.900;2022-09-03T05:06:17;13.90;99.90
14946;DHT22;7567;50.916;6.900;2022-09-03T05:08:50;13.90;99.90
14946;DHT22;7567;50.916;6.900;2022-09-03T05:11:16;14.00;1.00
14946;DHT22;7567;50.916;6.900;2022-09-03T05:13:42;14.00;1.00
14946;DHT22;7567;50.916;6.900;2022-09-03T05:16:10;14.10;1.00
14946;DHT22;7567;50.916;6.900;2022-09-03T05:18:37;14.10;1.00
14946;DHT22;7567;50.916;6.900;2022-09-03T05:21:06;14.10;99.90
14946;DHT22;7567;50.916;6.900;2022-09-03T05:23:35;14.20;1.00
14946;DHT22;7567;50.916;6.900;2022-09-03T05:26:04;14.20;1.00
14946;DHT22;7567;50.916;6.900;2022-09-03T05:28:34;14.20;99.90
14946;DHT22;7567;50.916;6.900;2022-09-03T05:31:03;14.20;1.00
14946;DHT22;7567;50.916;6.900;2022-09-03T05:33:29;14.20;1.00
14946;DHT22;7567;50.916;6.900;2022-09-03T05:36:05;14.20;1.00
14946;DHT22;7567;50.916;6.900;2022-09-03T05:38:32;14.20;44.60
14946;DHT22;7567;50.916;6.900;2022-09-03T05:41:03;14.30;88.20
14946;DHT22;7567;50.916;6.900;2022-09-03T05:43:30;14.30;61.70
14946;DHT22;7567;50.916;6.900;2022-09-03T05:46:01;14.40;99.90
14946;DHT22;7567;50.916;6.900;2022-09-03T05:48:28;14.50;53.10
14946;DHT22;7567;50.916;6.900;2022-09-03T05:53:25;14.60;1.00
14946;DHT22;7567;50.916;6.900;2022-09-03T05:55:57;14.60;99.90
14946;DHT22;7567;50.916;6.900;2022-09-03T05:58:29;14.70;1.00
14946;DHT22;7567;50.916;6.900;2022-09-03T06:00:55;14.80;1.00
14946;DHT22;7567;50.916;6.900;2022-09-03T06:03:20;14.90;99.90
14946;DHT22;7567;50.916;6.900;2022-09-03T06:05:51;14.90;1.00
14946;DHT22;7567;50.916;6.900;2022-09-03T06:08:17;15.10;99.90
14946;DHT22;7567;50.916;6.900;2022-09-03T06:10:43;15.10;1.00
14946;DHT22;7567;50.916;6.900;2022-09-03T06:13:08;15.20;1.00
14946;DHT22;7567;50.916;6.900;2022-09-03T06:15:35;15.30;1.00
14946;DHT22;7567;50.916;6.900;2022-09-03T06:18:00;15.30;1.00
14946;DHT22;7567;50.916;6.900;2022-09-03T06:20:26;15.50;1.00
14946;DHT22;7567;50.916;6.900;2022-09-03T06:22:52;15.60;99.90
14946;DHT22;7567;50.916;6.900;2022-09-03T06:25:18;15.70;1.00
14946;DHT22;7567;50.916;6.900;2022-09-03T06:27:44;15.80;1.00
14946;DHT22;7567;50.916;6.900;2022-09-03T06:30:14;16.00;99.90
14946;DHT22;7567;50.916;6.900;2022-09-03T06:32:45;16.10;99.90
14946;DHT22;7567;50.916;6.900;2022-09-03T06:35:11;16.30;99.90
14946;DHT22;7567;50.916;6.900;2022-09-03T06:37:41;16.40;1.00
14946;DHT22;7567;50.916;6.900;2022-09-03T06:40:07;16.50;99.90
14946;DHT22;7567;50.916;6.900;2022-09-03T06:42:40;16.60;99.90
14946;DHT22;7567;50.916;6.900;2022-09-03T06:45:07;16.70;99.90
14946;DHT22;7567;50.916;6.900;2022-09-03T06:47:33;16.80;99.90
14946;DHT22;7567;50.916;6.900;2022-09-03T06:49:59;17.00;1.00
14946;DHT22;7567;50.916;6.900;2022-09-03T06:52:26;17.20;99.90
14946;DHT22;7567;50.916;6.900;2022-09-03T06:54:52;17.50;99.90
14946;DHT22;7567;50.916;6.900;2022-09-03T06:57:18;17.70;99.90
14946;DHT22;7567;50.916;6.900;2022-09-03T06:59:43;17.80;99.90
14946;DHT22;7567;50.916;6.900;2022-09-03T07:02:09;17.90;99.90
14946;DHT22;7567;50.916;6.900;2022-09-03T07:04:35;18.00;99.90
14946;DHT22;7567;50.916;6.900;2022-09-03T07:07:01;18.10;99.90
14946;DHT22;7567;50.916;6.900;2022-09-03T07:09:27;18.20;99.90
14946;DHT22;7567;50.916;6.900;2022-09-03T07:11:53;18.20;99.90
14946;DHT22;7567;50.916;6.900;2022-09-03T07:14:21;18.30;99.90
14946;DHT22;7567;50.916;6.900;2022-09-03T07:16:48;18.40;97.90
14946;DHT22;7567;50.916;6.900;2022-09-03T07:19:14;18.60;22.50
14946;DHT22;7567;50.916;6.900;2022-09-03T07:21:41;18.70;23.20
14946;DHT22;7567;50.916;6.900;2022-09-03T07:24:07;18.80;99.90
14946;DHT22;7567;50.916;6.900;2022-09-03T07:26:36;18.80;1.00
14946;DHT22;7567;50.916;6.900;2022-09-03T07:29:03;18.90;1.00
14946;DHT22;7567;50.916;6.900;2022-09-03T07:31:32;19.00;1.00
14946;DHT22;7567;50.916;6.900;2022-09-03T07:34:00;19.10;1.00
14946;DHT22;7567;50.916;6.900;2022-09-03T07:36:28;19.20;1.00
14946;DHT22;7567;50.916;6.900;2022-09-03T07:38:55;19.30;1.00
14946;DHT22;7567;50.916;6.900;2022-09-03T07:41:22;19.50;1.00
14946;DHT22;7567;50.916;6.900;2022-09-03T07:43:49;19.70;1.00
14946;DHT22;7567;50.916;6.900;2022-09-03T07:46:17;19.80;1.00
14946;DHT22;7567;50.916;6.900;2022-09-03T07:48:52;19.90;1.00
14946;DHT22;7567;50.916;6.900;2022-09-03T07:51:20;20.10;1.00
14946;DHT22;7567;50.916;6.900;2022-09-03T07:53:47;20.30;1.00
14946;DHT22;7567;50.916;6.900;2022-09-03T07:56:13;20.40;1.00
14946;DHT22;7567;50.916;6.900;2022-09-03T07:58:40;20.50;1.00
14946;DHT22;7567;50.916;6.900;2022-09-03T08:01:11;20.50;1.00
14946;DHT22;7567;50.916;6.900;2022-09-03T08:03:41;20.40;1.00
14946;DHT22;7567;50.916;6.900;2022-09-03T08:06:07;20.50;1.00
14946;DHT22;7567;50.916;6.900;2022-09-03T08:08:34;20.60;1.00
14946;DHT22;7567;50.916;6.900;2022-09-03T08:11:05;20.60;1.00
14946;DHT22;7567;50.916;6.900;2022-09-03T08:13:34;20.80;1.00
14946;DHT22;7567;50.916;6.900;2022-09-03T08:16:00;21.00;1.00
14946;DHT22;7567;50.916;6.900;2022-09-03T08:18:26;21.10;1.00
14946;DHT22;7567;50.916;6.900;2022-09-03T08:21:02;20.90;1.00
14946;DHT22;7567;50.916;6.900;2022-09-03T08:23:28;20.80;1.00
14946;DHT22;7567;50.916;6.900;2022-09-03T08:25:58;20.60;1.00
14946;DHT22;7567;50.916;6.900;2022-09-03T08:28:25;20.50;1.00
14946;DHT22;7567;50.916;6.900;2022-09-03T08:30:50;20.40;1.00
14946;DHT22;7567;50.916;6.900;2022-09-03T08:33:16;20.40;1.00
14946;DHT22;7567;50.916;6.900;2022-09-03T08:36:06;20.40;1.00
14946;DHT22;7567;50.916;6.900;2022-09-03T08:38:33;20.40;1.00
14946;DHT22;7567;50.916;6.900;2022-09-03T08:41:27;20.30;1.00
14946;DHT22;7567;50.916;6.900;2022-09-03T08:47:01;20.30;1.00
14946;DHT22;7567;50.916;6.900;2022-09-03T08:49:51;20.20;1.00
14946;DHT22;7567;50.916;6.900;2022-09-03T08:58:28;20.00;1.00
14946;DHT22;7567;50.916;6.900;2022-09-03T09:01:33;20.10;1.00
14946;DHT22;7567;50.916;6.900;2022-09-03T09:12:46;20.10;1.00
14946;DHT22;7567;50.916;6.900;2022-09-03T09:20:49;20.30;1.00
14946;DHT22;7567;50.916;6.900;2022-09-03T09:23:30;20.30;58.70
14946;DHT22;7567;50.916;6.900;2022-09-03T09:25:59;20.50;1.00
14946;DHT22;7567;50.916;6.900;2022-09-03T09:28:35;20.30;1.00
14946;DHT22;7567;50.916;6.900;2022-09-03T09:31:04;20.40;1.00
14946;DHT22;7567;50.916;6.900;2022-09-03T09:33:31;20.60;1.00
14946;DHT22;7567;50.916;6.900;2022-09-03T09:36:02;20.70;1.00
14946;DHT22;7567;50.916;6.900;2022-09-03T09:38:31;20.80;1.00
14946;DHT22;7567;50.916;6.900;2022-09-03T09:41:08;20.80;1.00
14946;DHT22;7567;50.916;6.900;2022-09-03T09:43:35;20.80;1.00
14946;DHT22;7567;50.916;6.900;2022-09-03T09:46:22;21.10;1.00
14946;DHT22;7567;50.916;6.900;2022-09-03T09:48:52;21.50;1.00
14946;DHT22;7567;50.916;6.900;2022-09-03T09:51:27;22.10;1.00
14946;DHT22;7567;50.916;6.900;2022-09-03T09:56:26;22.50;1.00
14946;DHT22;7567;50.916;6.900;2022-09-03T09:59:06;22.80;1.00
14946;DHT22;7567;50.916;6.900;2022-09-03T10:01:43;22.40;1.00
14946;DHT22;7567;50.916;6.900;2022-09-03T10:04:11;22.80;1.00
14946;DHT22;7567;50.916;6.900;2022-09-03T10:06:42;23.20;1.00
14946;DHT22;7567;50.916;6.900;2022-09-03T10:09:26;23.40;1.00
14946;DHT22;7567;50.916;6.900;2022-09-03T10:14:28;23.80;1.00
14946;DHT22;7567;50.916;6.900;2022-09-03T10:20:10;24.40;1.00
14946;DHT22;7567;50.916;6.900;2022-09-03T10:23:01;24.40;1.00
14946;DHT22;7567;50.916;6.900;2022-09-03T10:25:42;24.40;1.00
14946;DHT22;7567;50.916;6.900;2022-09-03T10:28:12;24.40;1.00
14946;DHT22;7567;50.916;6.900;2022-09-03T10:39:30;24.40;1.00
14946;DHT22;7567;50.916;6.900;2022-09-03T10:44:53;24.20;1.00
14946;DHT22;7567;50.916;6.900;2022-09-03T10:47:34;24.60;1.00
14946;DHT22;7567;50.916;6.900;2022-09-03T10:50:13;24.70;1.00
14946;DHT22;7567;50.916;6.900;2022-09-03T11:01:15;25.40;1.00
14946;DHT22;7567;50.916;6.900;2022-09-03T11:06:42;25.60;1.00
14946;DHT22;7567;50.916;6.900;2022-09-03T11:12:18;26.30;1.00
14946;DHT22;7567;50.916;6.900;2022-09-03T11:14:55;26.40;1.00
14946;DHT22;7567;50.916;6.900;2022-09-03T11:17:41;26.50;1.00
14946;DHT22;7567;50.916;6.900;2022-09-03T11:20:22;26.80;1.00
14946;DHT22;7567;50.916;6.900;2022-09-03T11:22:54;26.90;1.00
14946;DHT22;7567;50.916;6.900;2022-09-03T11:25:25;27.00;1.00
14946;DHT22;7567;50.916;6.900;2022-09-03T11:34:11;27.20;1.00
14946;DHT22;7567;50.916;6.900;2022-09-03T11:36:38;27.50;1.00
14946;DHT22;7567;50.916;6.900;2022-09-03T11:39:43;27.30;1.00
14946;DHT22;7567;50.916;6.900;2022-09-03T11:42:11;27.20;1.00
14946;DHT22;7567;50.916;6.900;2022-09-03T11:44:42;27.30;1.00
14946;DHT22;7567;50.916;6.900;2022-09-03T11:47:24;27.20;1.00
14946;DHT22;7567;50.916;6.900;2022-09-03T11:53:36;27.00;1.00
14946;DHT22;7567;50.916;6.900;2022-09-03T11:55:54;27.30;1.00
14946;DHT22;7567;50.916;6.900;2022-09-03T12:00:57;27.00;1.00
14946;DHT22;7567;50.916;6.900;2022-09-03T12:03:29;26.80;1.00
14946;DHT22;7567;50.916;6.900;2022-09-03T12:14:32;27.50;1.00
14946;DHT22;7567;50.916;6.900;2022-09-03T12:20:46;27.80;1.00
14946;DHT22;7567;50.916;6.900;2022-09-03T12:23:34;27.80;1.00
14946;DHT22;7567;50.916;6.900;2022-09-03T12:26:07;27.80;1.00
14946;DHT22;7567;50.916;6.900;2022-09-03T12:28:37;27.90;1.00
14946;DHT22;7567;50.916;6.900;2022-09-03T12:31:15;27.80;1.00
14946;DHT22;7567;50.916;6.900;2022-09-03T12:33:52;28.00;1.00
14946;DHT22;7567;50.916;6.900;2022-09-03T12:36:20;28.00;1.00
14946;DHT22;7567;50.916;6.900;2022-09-03T12:38:47;28.30;1.00
14946;DHT22;7567;50.916;6.900;2022-09-03T12:41:26;28.50;1.00
14946;DHT22;7567;50.916;6.900;2022-09-03T12:43:55;28.70;1.00
14946;DHT22;7567;50.916;6.900;2022-09-03T12:46:29;28.90;1.00
14946;DHT22;7567;50.916;6.900;2022-09-03T12:49:03;28.90;1.00
14946;DHT22;7567;50.916;6.900;2022-09-03T12:51:35;28.70;1.00
14946;DHT22;7567;50.916;6.900;2022-09-03T12:54:03;28.70;1.00
14946;DHT22;7567;50.916;6.900;2022-09-03T12:56:32;28.70;1.00
14946;DHT22;7567;50.916;6.900;2022-09-03T12:59:12;28.60;1.00
14946;DHT22;7567;50.916;6.900;2022-09-03T13:01:48;28.80;1.00
14946;DHT22;7567;50.916;6.900;2022-09-03T13:04:22;28.90;1.00
14946;DHT22;7567;50.916;6.900;2022-09-03T13:07:07;29.10;1.00
14946;DHT22;7567;50.916;6.900;2022-09-03T13:09:37;29.10;1.00
14946;DHT22;7567;50.916;6.900;2022-09-03T13:12:04;29.30;1.00
14946;DHT22;7567;50.916;6.900;2022-09-03T13:14:45;29.30;1.00
14946;DHT22;7567;50.916;6.900;2022-09-03T13:30:56;29.30;1.00
14946;DHT22;7567;50.916;6.900;2022-09-03T13:33:39;29.00;1.00
14946;DHT22;7567;50.916;6.900;2022-09-03T13:36:14;28.80;1.00
14946;DHT22;7567;50.916;6.900;2022-09-03T13:38:55;29.00;1.00
14946;DHT22;7567;50.916;6.900;2022-09-03T13:41:36;29.00;1.00
14946;DHT22;7567;50.916;6.900;2022-09-03T13:44:13;29.10;1.00
14946;DHT22;7567;50.916;6.900;2022-09-03T13:52:58;29.30;1.00
14946;DHT22;7567;50.916;6.900;2022-09-03T14:00:30;29.00;1.00
14946;DHT22;7567;50.916;6.900;2022-09-03T14:05:59;28.60;1.00
14946;DHT22;7567;50.916;6.900;2022-09-03T14:16:48;28.90;1.00
14946;DHT22;7567;50.916;6.900;2022-09-03T14:22:43;28.30;1.00
14946;DHT22;7567;50.916;6.900;2022-09-03T14:25:21;28.20;1.00
14946;DHT22;7567;50.916;6.900;2022-09-03T14:27:48;28.50;1.00
14946;DHT22;7567;50.916;6.900;2022-09-03T14:33:17;29.00;1.00
14946;DHT22;7567;50.916;6.900;2022-09-03T14:38:31;28.60;1.00
14946;DHT22;7567;50.916;6.900;2022-09-03T14:41:16;28.80;1.00
14946;DHT22;7567;50.916;6.900;2022-09-03T14:51:25;29.10;1.00
14946;DHT22;7567;50.916;6.900;2022-09-03T15:11:34;29.10;1.00
14946;DHT22;7567;50.916;6.900;2022-09-03T15:14:33;28.70;1.00
14946;DHT22;7567;50.916;6.900;2022-09-03T15:20:07;28.00;1.00
14946;DHT22;7567;50.916;6.900;2022-09-03T15:36:51;26.90;1.00
14946;DHT22;7567;50.916;6.900;2022-09-03T15:39:24;26.70;1.00
14946;DHT22;7567;50.916;6.900;2022-09-03T15:42:13;26.70;1.00
14946;DHT22;7567;50.916;6.900;2022-09-03T15:44:59;26.40;1.00
14946;DHT22;7567;50.916;6.900;2022-09-03T15:50:34;26.10;1.00
14946;DHT22;7567;50.916;6.900;2022-09-03T15:59:00;25.90;1.00
14946;DHT22;7567;50.916;6.900;2022-09-03T16:07:18;25.00;1.00
14946;DHT22;7567;50.916;6.900;2022-09-03T16:15:45;24.30;1.00
14946;DHT22;7567;50.916;6.900;2022-09-03T16:18:29;24.30;49.40
14946;DHT22;7567;50.916;6.900;2022-09-03T16:23:42;24.20;1.00
14946;DHT22;7567;50.916;6.900;2022-09-03T16:28:47;23.90;1.00
14946;DHT22;7567;50.916;6.900;2022-09-03T16:33:56;24.30;1.00
14946;DHT22;7567;50.916;6.900;2022-09-03T16:36:48;24.60;99.90
14946;DHT22;7567;50.916;6.900;2022-09-03T16:56:03;23.40;99.90
14946;DHT22;7567;50.916;6.900;2022-09-03T16:59:07;23.40;99.90
14946;DHT22;7567;50.916;6.900;2022-09-03T17:07:38;23.20;1.00
14946;DHT22;7567;50.916;6.900;2022-09-03T17:13:30;23.00;1.00
14946;DHT22;7567;50.916;6.900;2022-09-03T17:16:18;22.90;1.00
14946;DHT22;7567;50.916;6.900;2022-09-03T17:21:47;22.60;1.00
14946;DHT22;7567;50.916;6.900;2022-09-03T17:30:24;22.30;1.00
14946;DHT22;7567;50.916;6.900;2022-09-03T17:41:10;22.00;1.00
14946;DHT22;7567;50.916;6.900;2022-09-03T17:44:04;22.00;1.00
14946;DHT22;7567;50.916;6.900;2022-09-03T17:49:28;21.70;1.00
14946;DHT22;7567;50.916;6.900;2022-09-03T17:54:31;21.50;1.00
14946;DHT22;7567;50.916;6.900;2022-09-03T17:59:48;21.30;1.00
14946;DHT22;7567;50.916;6.900;2022-09-03T18:02:42;21.20;1.00
14946;DHT22;7567;50.916;6.900;2022-09-03T18:13:53;20.90;60.60
14946;DHT22;7567;50.916;6.900;2022-09-03T18:19:11;20.80;84.10
14946;DHT22;7567;50.916;6.900;2022-09-03T18:21:46;20.70;99.90
14946;DHT22;7567;50.916;6.900;2022-09-03T18:27:19;20.40;99.90
14946;DHT22;7567;50.916;6.900;2022-09-03T18:30:07;20.40;99.90
14946;DHT22;7567;50.916;6.900;2022-09-03T18:32:52;20.30;99.90
14946;DHT22;7567;50.916;6.900;2022-09-03T18:35:37;20.30;99.90
14946;DHT22;7567;50.916;6.900;2022-09-03T18:38:26;20.20;99.90
14946;DHT22;7567;50.916;6.900;2022-09-03T18:41:29;20.10;99.90
14946;DHT22;7567;50.916;6.900;2022-09-03T18:44:50;20.00;99.90
14946;DHT22;7567;50.916;6.900;2022-09-03T18:47:48;19.80;99.90
14946;DHT22;7567;50.916;6.900;2022-09-03T18:56:46;19.50;99.90
14946;DHT22;7567;50.916;6.900;2022-09-03T19:02:49;19.30;99.90
14946;DHT22;7567;50.916;6.900;2022-09-03T19:06:02;19.30;99.90
14946;DHT22;7567;50.916;6.900;2022-09-03T19:18:17;18.90;99.90
14946;DHT22;7567;50.916;6.900;2022-09-03T19:21:12;18.80;99.90
14946;DHT22;7567;50.916;6.900;2022-09-03T19:24:01;18.80;99.90
14946;DHT22;7567;50.916;6.900;2022-09-03T19:26:57;18.90;99.90
14946;DHT22;7567;50.916;6.900;2022-09-03T19:30:20;18.80;99.90
14946;DHT22;7567;50.916;6.900;2022-09-03T19:37:03;18.70;99.90
14946;DHT22;7567;50.916;6.900;2022-09-03T19:54:41;18.40;99.90
14946;DHT22;7567;50.916;6.900;2022-09-03T19:57:27;18.40;99.90
14946;DHT22;7567;50.916;6.900;2022-09-03T20:00:13;18.30;99.90
14946;DHT22;7567;50.916;6.900;2022-09-03T20:02:58;18.30;99.90
14946;DHT22;7567;50.916;6.900;2022-09-03T20:05:44;18.30;99.90
14946;DHT22;7567;50.916;6.900;2022-09-03T20:08:28;18.40;99.90
14946;DHT22;7567;50.916;6.900;2022-09-03T20:11:18;18.40;99.90
14946;DHT22;7567;50.916;6.900;2022-09-03T20:13:44;18.30;99.90
14946;DHT22;7567;50.916;6.900;2022-09-03T20:16:36;18.30;99.90
14946;DHT22;7567;50.916;6.900;2022-09-03T20:21:55;18.20;99.90
14946;DHT22;7567;50.916;6.900;2022-09-03T20:36:37;18.00;99.90
14946;DHT22;7567;50.916;6.900;2022-09-03T20:41:57;17.90;99.90
14946;DHT22;7567;50.916;6.900;2022-09-03T20:44:42;17.90;99.90
14946;DHT22;7567;50.916;6.900;2022-09-03T20:52:53;17.90;99.90
14946;DHT22;7567;50.916;6.900;2022-09-03T20:55:28;17.90;99.90
14946;DHT22;7567;50.916;6.900;2022-09-03T20:58:15;17.80;99.90
14946;DHT22;7567;50.916;6.900;2022-09-03T21:03:47;17.70;99.90
14946;DHT22;7567;50.916;6.900;2022-09-03T21:12:37;17.60;99.90
14946;DHT22;7567;50.916;6.900;2022-09-03T21:14:41;17.60;99.90
14946;DHT22;7567;50.916;6.900;2022-09-03T21:25:36;17.50;99.90
14946;DHT22;7567;50.916;6.900;2022-09-03T21:28:15;17.50;99.90
14946;DHT22;7567;50.916;6.900;2022-09-03T21:30:46;17.50;99.90
14946;DHT22;7567;50.916;6.900;2022-09-03T21:33:19;17.60;99.90
14946;DHT22;7567;50.916;6.900;2022-09-03T21:35:57;17.60;99.90
14946;DHT22;7567;50.916;6.900;2022-09-03T21:38:31;17.60;99.90
14946;DHT22;7567;50.916;6.900;2022-09-03T21:43:44;17.60;99.90
14946;DHT22;7567;50.916;6.900;2022-09-03T21:46:36;17.50;99.90
14946;DHT22;7567;50.916;6.900;2022-09-03T21:49:08;17.50;99.90
14946;DHT22;7567;50.916;6.900;2022-09-03T21:51:57;17.50;99.90
14946;DHT22;7567;50.916;6.900;2022-09-03T21:54:30;17.40;99.90
14946;DHT22;7567;50.916;6.900;2022-09-03T22:02:25;17.30;99.90
14946;DHT22;7567;50.916;6.900;2022-09-03T22:04:52;17.30;99.90
14946;DHT22;7567;50.916;6.900;2022-09-03T22:15:42;17.10;99.90
14946;DHT22;7567;50.916;6.900;2022-09-03T22:18:19;17.00;99.90
14946;DHT22;7567;50.916;6.900;2022-09-03T22:23:35;17.00;99.90
14946;DHT22;7567;50.916;6.900;2022-09-03T22:26:19;17.00;99.90
14946;DHT22;7567;50.916;6.900;2022-09-03T22:28:55;17.00;99.90
14946;DHT22;7567;50.916;6.900;2022-09-03T22:34:42;16.90;99.90
14946;DHT22;7567;50.916;6.900;2022-09-03T22:37:26;16.90;99.90
14946;DHT22;7567;50.916;6.900;2022-09-03T22:40:04;16.80;99.90
14946;DHT22;7567;50.916;6.900;2022-09-03T22:43:06;16.80;99.90
14946;DHT22;7567;50.916;6.900;2022-09-03T22:45:59;16.70;99.90
14946;DHT22;7567;50.916;6.900;2022-09-03T22:49:02;16.70;99.90
14946;DHT22;7567;50.916;6.900;2022-09-03T22:54:20;16.70;99.90
14946;DHT22;7567;50.916;6.900;2022-09-03T22:56:47;16.60;99.90
14946;DHT22;7567;50.916;6.900;2022-09-03T22:59:24;16.60;99.90
14946;DHT22;7567;50.916;6.900;2022-09-03T23:02:07;16.50;99.90
14946;DHT22;7567;50.916;6.900;2022-09-03T23:07:38;16.50;99.90
14946;DHT22;7567;50.916;6.900;2022-09-03T23:10:11;16.50;99.90
14946;DHT22;7567;50.916;6.900;2022-09-03T23:12:42;16.50;99.90
14946;DHT22;7567;50.916;6.900;2022-09-03T23:15:31;16.40;99.90
14946;DHT22;7567;50.916;6.900;2022-09-03T23:18:10;16.40;99.90
14946;DHT22;7567;50.916;6.900;2022-09-03T23:20:42;16.30;99.90
14946;DHT22;7567;50.916;6.900;2022-09-03T23:23:14;16.30;99.90
14946;DHT22;7567;50.916;6.900;2022-09-03T23:25:46;16.30;99.90
14946;DHT22;7567;50.916;6.900;2022-09-03T23:28:23;16.30;99.90
14946;DHT22;7567;50.916;6.900;2022-09-03T23:30:50;16.20;99.90
14946;DHT22;7567;50.916;6.900;2022-09-03T23:33:16;16.20;99.90
14946;DHT22;7567;50.916;6.900;2022-09-03T23:36:07;16.20;99.90
14946;DHT22;7567;50.916;6.900;2022-09-03T23:38:50;16.20;99.90
14946;DHT22;7567;50.916;6.900;2022-09-03T23:41:31;16.20;99.90
14946;DHT22;7567;50.916;6.900;2022-09-03T23:44:18;16.20;99.90
14946;DHT22;7567;50.916;6.900;2022-09-03T23:49:40;16.10;99.90